EGXW/WTN METAR and TAF weather

Enter ICAO airport designator
Station Type Date Time Source
EGXW METAR 2019/12/13 00:50 UTC NOAA

EGXW 130050Z AUTO 23008KT 8000 BR OVC038/// 06/05 Q0969


Station Type Date Time Source
EGXW Decoded METAR 2019/12/13 00:50 UTC NOAA

Waddington, United Kingdom (EGXW) 53-10N 000-31W 0M
Dec 12, 2019 - 07:50 PM EST / 2019.12.13 0050 UTC
Wind: from the SW (230 degrees) at 9 MPH (8 KT):0
Visibility: 4 mile(s):0
Sky conditions: overcast
Weather: mist
Temperature: 42 F (6 C)
Dew Point: 41 F (5 C)
Relative Humidity: 93%
Pressure (altimeter): 28.61 in. Hg (0969 hPa)
ob: EGXW 130050Z AUTO 23008KT 8000 BR OVC038/// 06/05 Q0969
cycle: 1

Station Type Date Time Source
EGXW TAF 2019/12/12 18:11 UTC NOAA

TAF EGXW 121807Z 1218/1312 CNL

Example: see airport list